createdAt,value
2019-05-12T00:00:40.477Z,0.00
2019-05-12T00:01:40.462Z,0.00
2019-05-12T00:02:40.478Z,0.00
2019-05-12T00:03:40.445Z,0.00
2019-05-12T00:04:40.464Z,0.00
2019-05-12T00:05:40.503Z,0.00
2019-05-12T00:06:40.404Z,0.00
2019-05-12T00:07:40.393Z,0.00
2019-05-12T00:08:40.422Z,0.00
2019-05-12T00:09:40.369Z,0.00
2019-05-12T00:10:40.372Z,0.00
2019-05-12T00:11:40.354Z,0.00
2019-05-12T00:12:40.354Z,0.00
2019-05-12T00:13:40.332Z,0.00
2019-05-12T00:14:40.382Z,0.00
2019-05-12T00:15:40.344Z,0.00
2019-05-12T00:16:40.301Z,0.00
2019-05-12T00:17:40.291Z,0.00
2019-05-12T00:18:40.299Z,0.00
2019-05-12T00:19:40.267Z,0.00
2019-05-12T00:20:40.297Z,0.00
2019-05-12T00:21:40.250Z,0.00
2019-05-12T00:22:40.228Z,0.00
2019-05-12T00:23:40.225Z,0.00
2019-05-12T00:24:40.208Z,0.00
2019-05-12T00:25:40.203Z,0.00
2019-05-12T00:26:40.235Z,0.00
2019-05-12T00:27:40.196Z,0.00
2019-05-12T00:28:40.167Z,0.00
2019-05-12T00:29:40.164Z,0.00
2019-05-12T00:30:40.156Z,0.00
2019-05-12T00:31:40.135Z,0.00
2019-05-12T00:32:40.171Z,0.00
2019-05-12T00:33:40.117Z,0.00
2019-05-12T00:34:40.190Z,0.00
2019-05-12T00:35:40.094Z,0.00
2019-05-12T00:36:40.077Z,0.00
2019-05-12T00:37:40.151Z,0.00
2019-05-12T00:38:40.064Z,0.00
2019-05-12T00:39:40.050Z,0.00
2019-05-12T00:40:40.034Z,0.00
2019-05-12T00:41:40.077Z,0.00
2019-05-12T00:42:40.011Z,0.00
2019-05-12T00:43:40.024Z,0.00
2019-05-12T00:44:39.992Z,0.00
2019-05-12T00:45:40.031Z,0.00
2019-05-12T00:46:40.010Z,0.00
2019-05-12T00:47:39.961Z,0.00
2019-05-12T00:48:39.950Z,0.00
2019-05-12T00:49:39.940Z,0.00
2019-05-12T00:50:39.949Z,0.00
2019-05-12T00:51:39.955Z,0.00
2019-05-12T00:52:39.958Z,0.00
2019-05-12T00:53:43.305Z,0.00
2019-05-12T00:54:39.887Z,0.00
2019-05-12T00:55:39.880Z,0.00
2019-05-12T00:56:39.905Z,0.00
2019-05-12T00:57:39.856Z,0.00
2019-05-12T00:58:39.845Z,0.00
2019-05-12T00:59:39.888Z,0.00
2019-05-12T01:00:41.090Z,0.00
2019-05-12T01:01:39.819Z,0.00
2019-05-12T01:02:39.839Z,0.00
2019-05-12T01:03:39.794Z,0.00
2019-05-12T01:04:39.785Z,0.00
2019-05-12T01:05:39.773Z,0.00
2019-05-12T01:06:39.754Z,0.00
2019-05-12T01:07:39.782Z,0.00
2019-05-12T01:08:39.735Z,0.00
2019-05-12T01:09:39.723Z,0.00
2019-05-12T01:10:39.727Z,0.00
2019-05-12T01:11:39.705Z,0.00
2019-05-12T01:12:39.692Z,0.00
2019-05-12T01:13:39.721Z,0.00
2019-05-12T01:14:39.676Z,0.00
2019-05-12T01:15:39.671Z,0.00
2019-05-12T01:16:39.650Z,0.00
2019-05-12T01:17:40.511Z,0.00
2019-05-12T01:18:39.687Z,0.00
2019-05-12T01:19:40.531Z,0.00
2019-05-12T01:20:39.610Z,0.00
2019-05-12T01:21:39.598Z,0.00
2019-05-12T01:22:39.618Z,0.00
2019-05-12T01:23:53.328Z,0.00
2019-05-12T01:24:40.597Z,0.00
2019-05-12T01:25:40.030Z,0.00
2019-05-12T01:26:39.547Z,0.00
2019-05-12T01:27:39.526Z,0.00
2019-05-12T01:28:39.516Z,0.00
2019-05-12T01:29:39.526Z,0.00
2019-05-12T01:30:39.641Z,0.00
2019-05-12T01:31:39.558Z,0.00
2019-05-12T01:32:39.502Z,0.00
2019-05-12T01:33:39.463Z,0.00
2019-05-12T01:34:39.453Z,0.00
2019-05-12T01:35:39.463Z,0.00
2019-05-12T01:36:39.473Z,0.00
2019-05-12T01:37:39.421Z,0.00
2019-05-12T01:38:39.411Z,0.00
2019-05-12T01:39:39.463Z,0.00
2019-05-12T01:40:39.934Z,0.00
2019-05-12T01:41:39.392Z,0.00
2019-05-12T01:42:39.385Z,0.00
2019-05-12T01:43:39.352Z,0.00
2019-05-12T01:44:39.379Z,0.00
2019-05-12T01:45:39.372Z,0.00
2019-05-12T01:46:39.324Z,0.00
2019-05-12T01:47:39.388Z,0.00
2019-05-12T01:48:39.302Z,0.00
2019-05-12T01:49:39.292Z,0.00
2019-05-12T01:50:39.398Z,0.00
2019-05-12T01:51:39.308Z,0.00
2019-05-12T01:52:39.257Z,0.00
2019-05-12T01:53:39.262Z,0.00
2019-05-12T01:54:39.239Z,0.00
2019-05-12T01:55:39.354Z,0.00
2019-05-12T01:56:39.256Z,0.00
2019-05-12T01:57:39.224Z,0.00
2019-05-12T01:58:39.195Z,0.00
2019-05-12T01:59:39.179Z,0.00
2019-05-12T02:00:39.435Z,0.00
2019-05-12T02:01:39.187Z,0.00
2019-05-12T02:02:39.215Z,0.00
2019-05-12T02:03:39.172Z,0.00
2019-05-12T02:04:39.134Z,0.00
2019-05-12T02:05:39.164Z,0.00
2019-05-12T02:06:39.109Z,0.00
2019-05-12T02:07:39.101Z,0.00
2019-05-12T02:08:39.135Z,0.00
2019-05-12T02:09:39.087Z,0.00
2019-05-12T02:10:39.192Z,0.00
2019-05-12T02:11:39.099Z,0.00
2019-05-12T02:12:39.045Z,0.00
2019-05-12T02:13:39.060Z,0.00
2019-05-12T02:14:39.024Z,0.00
2019-05-12T02:15:39.030Z,0.00
2019-05-12T02:16:39.003Z,0.00
2019-05-12T02:17:39.302Z,0.00
2019-05-12T02:18:38.983Z,0.00
2019-05-12T02:19:38.979Z,0.00
2019-05-12T02:20:38.957Z,0.00
2019-05-12T02:21:38.949Z,0.00
2019-05-12T02:22:39.020Z,0.00
2019-05-12T02:23:38.965Z,0.00
2019-05-12T02:24:39.142Z,0.00
2019-05-12T02:25:38.897Z,0.00
2019-05-12T02:26:38.908Z,0.00
2019-05-12T02:27:38.888Z,0.00
2019-05-12T02:28:39.462Z,0.00
2019-05-12T02:29:38.896Z,0.00
2019-05-12T02:30:41.625Z,0.00
2019-05-12T02:31:39.993Z,0.00
2019-05-12T02:32:48.695Z,0.00
2019-05-12T02:33:39.823Z,0.00
2019-05-12T02:34:38.834Z,0.00
2019-05-12T02:35:38.834Z,0.00
2019-05-12T02:36:38.784Z,0.00
2019-05-12T02:37:38.786Z,0.00
2019-05-12T02:38:38.782Z,0.00
2019-05-12T02:39:38.782Z,0.00
2019-05-12T02:40:38.735Z,0.00
2019-05-12T02:41:38.763Z,0.00
2019-05-12T02:42:38.724Z,0.00
2019-05-12T02:43:38.708Z,0.00
2019-05-12T02:44:38.690Z,0.00
2019-05-12T02:45:38.707Z,0.00
2019-05-12T02:46:38.679Z,0.00
2019-05-12T02:47:38.957Z,0.00
2019-05-12T02:48:38.655Z,0.00
2019-05-12T02:49:38.642Z,0.00
2019-05-12T02:50:38.629Z,0.00
2019-05-12T02:51:38.622Z,0.00
2019-05-12T02:52:38.655Z,0.00
2019-05-12T02:53:38.647Z,0.00
2019-05-12T02:54:54.365Z,0.00
2019-05-12T02:55:39.582Z,0.00
2019-05-12T02:56:38.558Z,0.00
2019-05-12T02:57:38.558Z,0.00
2019-05-12T02:58:38.547Z,0.00
2019-05-12T02:59:38.568Z,0.00
2019-05-12T03:00:38.527Z,0.00
2019-05-12T03:01:38.514Z,0.00
2019-05-12T03:02:38.522Z,0.00
2019-05-12T03:03:38.495Z,0.00
2019-05-12T03:04:38.484Z,0.00
2019-05-12T03:05:38.551Z,0.00
2019-05-12T03:06:38.465Z,0.00
2019-05-12T03:07:38.454Z,0.00
2019-05-12T03:08:38.434Z,0.00
2019-05-12T03:09:38.444Z,0.00
2019-05-12T03:10:38.415Z,0.00
2019-05-12T03:11:38.444Z,0.00
2019-05-12T03:12:38.394Z,0.00
2019-05-12T03:13:38.391Z,0.00
2019-05-12T03:14:40.810Z,0.00
2019-05-12T03:15:38.359Z,0.00
2019-05-12T03:16:38.350Z,0.00
2019-05-12T03:17:38.371Z,0.00
2019-05-12T03:18:38.344Z,0.00
2019-05-12T03:19:38.321Z,0.00
2019-05-12T03:20:38.299Z,0.00
2019-05-12T03:21:38.297Z,0.00
2019-05-12T03:22:38.279Z,0.00
2019-05-12T03:23:38.302Z,0.00
2019-05-12T03:24:38.276Z,0.00
2019-05-12T03:25:38.250Z,0.00
2019-05-12T03:26:38.249Z,0.00
2019-05-12T03:27:38.231Z,0.00
2019-05-12T03:28:38.260Z,0.00
2019-05-12T03:29:38.205Z,0.00
2019-05-12T03:30:40.711Z,0.00
2019-05-12T03:31:40.758Z,0.00
2019-05-12T03:32:38.760Z,0.00
2019-05-12T03:33:44.032Z,0.00
2019-05-12T03:34:39.206Z,0.00
2019-05-12T03:35:50.180Z,0.00
2019-05-12T03:36:43.002Z,0.00
2019-05-12T03:37:39.123Z,0.00
2019-05-12T03:38:38.112Z,0.00
2019-05-12T03:39:38.104Z,0.00
2019-05-12T03:40:39.002Z,0.00
2019-05-12T03:41:38.082Z,0.00
2019-05-12T03:42:38.097Z,0.00
2019-05-12T03:43:38.059Z,0.00
2019-05-12T03:44:38.070Z,0.00
2019-05-12T03:45:38.031Z,0.00
2019-05-12T03:46:38.061Z,0.00
2019-05-12T03:47:38.019Z,0.00
2019-05-12T03:48:38.001Z,0.00
2019-05-12T03:49:38.001Z,0.00
2019-05-12T03:50:37.979Z,0.00
2019-05-12T03:51:37.968Z,0.00
2019-05-12T03:52:37.998Z,0.00
2019-05-12T03:53:37.949Z,0.00
2019-05-12T03:54:37.927Z,0.00
2019-05-12T03:55:42.133Z,0.00
2019-05-12T03:56:38.918Z,0.00
2019-05-12T03:57:37.907Z,0.00
2019-05-12T03:58:37.929Z,5.62
2019-05-12T03:59:37.877Z,5.62
2019-05-12T04:00:37.865Z,5.62
2019-05-12T04:01:37.887Z,5.62
2019-05-12T04:02:37.845Z,5.62
2019-05-12T04:03:37.843Z,5.62
2019-05-12T04:04:37.867Z,5.62
2019-05-12T04:05:37.834Z,5.62
2019-05-12T04:06:37.806Z,5.62
2019-05-12T04:07:37.802Z,5.62
2019-05-12T04:08:37.794Z,11.25
2019-05-12T04:09:37.787Z,11.25
2019-05-12T04:10:37.794Z,11.25
2019-05-12T04:11:37.742Z,11.25
2019-05-12T04:12:37.756Z,11.25
2019-05-12T04:13:37.729Z,11.25
2019-05-12T04:14:37.715Z,11.25
2019-05-12T04:15:37.705Z,11.25
2019-05-12T04:16:37.735Z,11.25
2019-05-12T04:17:37.689Z,11.25
2019-05-12T04:18:37.688Z,16.88
2019-05-12T04:19:37.660Z,16.88
2019-05-12T04:20:37.674Z,16.88
2019-05-12T04:21:37.643Z,16.88
2019-05-12T04:22:37.669Z,16.88
2019-05-12T04:23:37.635Z,22.50
2019-05-12T04:24:37.650Z,22.50
2019-05-12T04:25:50.967Z,22.50
2019-05-12T04:26:38.586Z,22.50
2019-05-12T04:27:37.587Z,22.50
2019-05-12T04:28:37.567Z,22.50
2019-05-12T04:29:37.556Z,22.50
2019-05-12T04:30:37.587Z,28.12
2019-05-12T04:31:37.594Z,28.12
2019-05-12T04:32:37.517Z,28.12
2019-05-12T04:33:37.504Z,28.12
2019-05-12T04:34:37.577Z,28.12
2019-05-12T04:35:37.539Z,28.12
2019-05-12T04:36:37.505Z,28.12
2019-05-12T04:37:37.462Z,28.12
2019-05-12T04:38:37.456Z,33.75
2019-05-12T04:39:37.454Z,28.12
2019-05-12T04:40:37.433Z,28.12
2019-05-12T04:41:37.498Z,33.75
2019-05-12T04:42:37.413Z,33.75
2019-05-12T04:43:37.402Z,28.12
2019-05-12T04:44:37.392Z,33.75
2019-05-12T04:45:37.380Z,39.38
2019-05-12T04:46:37.371Z,45.00
2019-05-12T04:47:37.403Z,45.00
2019-05-12T04:48:37.350Z,56.25
2019-05-12T04:49:37.343Z,56.25
2019-05-12T04:50:37.370Z,67.50
2019-05-12T04:51:37.319Z,67.50
2019-05-12T04:52:37.300Z,67.50
2019-05-12T04:53:37.403Z,73.12
2019-05-12T04:54:37.280Z,78.75
2019-05-12T04:55:37.278Z,78.75
2019-05-12T04:56:37.279Z,84.38
2019-05-12T04:57:37.260Z,78.75
2019-05-12T04:58:37.242Z,84.38
2019-05-12T04:59:37.265Z,90.00
2019-05-12T05:00:37.228Z,90.00
2019-05-12T05:01:37.215Z,90.00
2019-05-12T05:02:37.197Z,90.00
2019-05-12T05:03:37.183Z,101.25
2019-05-12T05:04:37.197Z,106.88
2019-05-12T05:05:37.211Z,106.88
2019-05-12T05:06:37.165Z,95.62
2019-05-12T05:07:37.152Z,106.88
2019-05-12T05:08:37.124Z,101.25
2019-05-12T05:09:37.119Z,95.62
2019-05-12T05:10:37.110Z,90.00
2019-05-12T05:11:37.155Z,95.62
2019-05-12T05:12:37.083Z,112.50
2019-05-12T05:13:39.784Z,123.75
2019-05-12T05:14:37.062Z,118.12
2019-05-12T05:15:37.123Z,101.25
2019-05-12T05:16:37.050Z,106.88
2019-05-12T05:17:37.032Z,118.12
2019-05-12T05:18:37.033Z,118.12
2019-05-12T05:19:37.010Z,112.50
2019-05-12T05:20:37.009Z,112.50
2019-05-12T05:21:37.028Z,118.12
2019-05-12T05:22:38.222Z,135.00
2019-05-12T05:23:36.969Z,151.88
2019-05-12T05:24:36.964Z,151.88
2019-05-12T05:25:36.976Z,146.25
2019-05-12T05:26:37.548Z,146.25
2019-05-12T05:27:36.965Z,151.88
2019-05-12T05:28:36.914Z,168.75
2019-05-12T05:29:37.312Z,157.50
2019-05-12T05:30:36.886Z,157.50
2019-05-12T05:31:36.885Z,157.50
2019-05-12T05:32:36.864Z,157.50
2019-05-12T05:33:36.904Z,151.88
2019-05-12T05:34:36.844Z,163.12
2019-05-12T05:35:39.653Z,174.38
2019-05-12T05:36:36.852Z,185.62
2019-05-12T05:37:41.325Z,185.62
2019-05-12T05:38:37.859Z,180.00
2019-05-12T05:39:47.945Z,180.00
2019-05-12T05:40:37.830Z,168.75
2019-05-12T05:41:40.054Z,163.12
2019-05-12T05:42:37.795Z,168.75
2019-05-12T05:43:36.790Z,185.62
2019-05-12T05:44:38.103Z,202.50
2019-05-12T05:45:36.734Z,213.75
2019-05-12T05:46:39.020Z,208.12
2019-05-12T05:47:37.709Z,219.38
2019-05-12T05:48:36.695Z,258.75
2019-05-12T05:49:36.719Z,247.50
2019-05-12T05:50:36.700Z,241.88
2019-05-12T05:51:39.512Z,236.25
2019-05-12T05:52:38.831Z,230.62
2019-05-12T05:53:36.637Z,208.12
2019-05-12T05:54:40.039Z,202.50
2019-05-12T05:55:36.664Z,213.75
2019-05-12T05:56:42.249Z,213.75
2019-05-12T05:57:37.659Z,213.75
2019-05-12T05:58:40.241Z,236.25
2019-05-12T05:59:37.617Z,258.75
2019-05-12T06:00:39.269Z,258.75
2019-05-12T06:01:40.241Z,202.50
2019-05-12T06:02:40.516Z,213.75
2019-05-12T06:03:36.536Z,247.50
2019-05-12T06:04:39.170Z,241.88
2019-05-12T06:05:38.684Z,241.88
2019-05-12T06:06:36.500Z,230.62
2019-05-12T06:07:39.132Z,219.38
2019-05-12T06:08:36.491Z,230.62
2019-05-12T06:09:36.500Z,264.38
2019-05-12T06:10:40.483Z,253.12
2019-05-12T06:11:36.490Z,241.88
2019-05-12T06:12:40.412Z,241.88
2019-05-12T06:13:40.048Z,230.62
2019-05-12T06:14:36.410Z,230.62
2019-05-12T06:15:40.579Z,236.25
2019-05-12T06:16:36.399Z,258.75
2019-05-12T06:17:36.443Z,275.62
2019-05-12T06:18:36.378Z,303.75
2019-05-12T06:19:36.356Z,315.00
2019-05-12T06:20:38.150Z,303.75
2019-05-12T06:21:38.248Z,298.12
2019-05-12T06:22:36.317Z,303.75
2019-05-12T06:23:39.140Z,286.88
2019-05-12T06:24:36.307Z,298.12
2019-05-12T06:25:46.300Z,303.75
2019-05-12T06:26:37.286Z,343.12
2019-05-12T06:27:36.295Z,360.00
2019-05-12T06:28:40.924Z,371.25
2019-05-12T06:29:37.295Z,365.62
2019-05-12T06:30:44.140Z,354.38
2019-05-12T06:31:37.233Z,343.12
2019-05-12T06:32:36.216Z,348.75
2019-05-12T06:33:36.500Z,354.38
2019-05-12T06:34:36.192Z,365.62
2019-05-12T06:35:40.647Z,371.25
2019-05-12T06:36:37.172Z,337.50
2019-05-12T06:37:36.160Z,360.00
2019-05-12T06:38:39.345Z,360.00
2019-05-12T06:39:36.141Z,360.00
2019-05-12T06:40:40.792Z,388.12
2019-05-12T06:41:37.157Z,399.38
2019-05-12T06:42:36.109Z,416.25
2019-05-12T06:43:39.567Z,421.88
2019-05-12T06:44:37.100Z,433.12
2019-05-12T06:45:41.900Z,444.38
2019-05-12T06:46:37.060Z,444.38
2019-05-12T06:47:39.298Z,433.12
2019-05-12T06:48:37.051Z,427.50
2019-05-12T06:49:36.031Z,433.12
2019-05-12T06:50:39.113Z,433.12
2019-05-12T06:51:36.017Z,427.50
2019-05-12T06:52:38.582Z,444.38
2019-05-12T06:53:37.037Z,455.62
2019-05-12T06:54:35.996Z,466.88
2019-05-12T06:55:38.998Z,483.75
2019-05-12T06:56:35.961Z,489.38
2019-05-12T06:57:39.998Z,495.00
2019-05-12T06:58:36.934Z,495.00
2019-05-12T06:59:35.963Z,523.12
2019-05-12T07:00:35.948Z,523.12
2019-05-12T07:01:35.907Z,540.00
2019-05-12T07:02:48.436Z,545.62
2019-05-12T07:03:37.390Z,551.25
2019-05-12T07:04:35.942Z,545.62
2019-05-12T07:05:38.352Z,551.25
2019-05-12T07:06:35.917Z,556.88
2019-05-12T07:07:42.125Z,551.25
2019-05-12T07:08:38.481Z,540.00
2019-05-12T07:09:53.617Z,540.00
2019-05-12T07:10:42.958Z,540.00
2019-05-12T07:11:44.870Z,545.62
2019-05-12T07:12:48.110Z,556.88
2019-05-12T07:13:36.791Z,562.50
2019-05-12T07:14:35.827Z,545.62
2019-05-12T07:15:40.354Z,545.62
2019-05-12T07:16:36.749Z,573.75
2019-05-12T07:17:43.638Z,489.38
2019-05-12T07:18:37.173Z,511.88
2019-05-12T07:19:35.705Z,511.88
2019-05-12T07:20:38.937Z,511.88
2019-05-12T07:21:35.826Z,528.75
2019-05-12T07:22:43.826Z,618.75
2019-05-12T07:23:36.666Z,562.50
2019-05-12T07:24:35.656Z,489.38
2019-05-12T07:25:36.806Z,472.50
2019-05-12T07:26:35.692Z,495.00
2019-05-12T07:27:39.589Z,517.50
2019-05-12T07:28:40.172Z,495.00
2019-05-12T07:29:35.602Z,444.38
2019-05-12T07:30:35.641Z,399.38
2019-05-12T07:31:35.613Z,410.62
2019-05-12T07:32:35.571Z,450.00
2019-05-12T07:33:41.446Z,405.00
2019-05-12T07:34:36.556Z,360.00
2019-05-12T07:35:35.547Z,382.50
2019-05-12T07:36:35.566Z,410.62
2019-05-12T07:37:35.522Z,444.38
2019-05-12T07:38:35.524Z,495.00
2019-05-12T07:39:36.996Z,444.38
2019-05-12T07:40:37.789Z,421.88
2019-05-12T07:41:35.507Z,399.38
2019-05-12T07:42:39.342Z,416.25
2019-05-12T07:43:35.457Z,427.50
2019-05-12T07:44:40.100Z,483.75
2019-05-12T07:45:36.466Z,455.62
2019-05-12T07:46:39.798Z,461.25
2019-05-12T07:47:36.425Z,489.38
2019-05-12T07:48:40.315Z,506.25
2019-05-12T07:49:38.565Z,528.75
2019-05-12T07:50:35.379Z,483.75
2019-05-12T07:51:40.484Z,455.62
2019-05-12T07:52:36.393Z,388.12
2019-05-12T07:53:35.374Z,410.62
2019-05-12T07:54:39.339Z,483.75
2019-05-12T07:55:39.789Z,461.25
2019-05-12T07:56:36.332Z,461.25
2019-05-12T07:57:50.779Z,495.00
2019-05-12T07:58:41.028Z,483.75
2019-05-12T07:59:40.930Z,483.75
2019-05-12T08:00:35.272Z,511.88
2019-05-12T08:01:44.747Z,506.25
2019-05-12T08:02:36.240Z,483.75
2019-05-12T08:03:35.246Z,483.75
2019-05-12T08:04:39.819Z,545.62
2019-05-12T08:05:36.209Z,573.75
2019-05-12T08:06:41.836Z,562.50
2019-05-12T08:07:36.190Z,528.75
2019-05-12T08:08:35.179Z,523.12
2019-05-12T08:09:36.497Z,545.62
2019-05-12T08:10:35.160Z,568.12
2019-05-12T08:11:38.664Z,562.50
2019-05-12T08:12:35.176Z,585.00
2019-05-12T08:13:37.848Z,511.88
2019-05-12T08:14:36.114Z,500.62
2019-05-12T08:15:35.136Z,528.75
2019-05-12T08:16:36.952Z,500.62
2019-05-12T08:17:35.116Z,489.38
2019-05-12T08:18:37.081Z,540.00
2019-05-12T08:19:36.054Z,540.00
2019-05-12T08:20:35.045Z,528.75
2019-05-12T08:21:43.738Z,601.88
2019-05-12T08:22:36.065Z,652.50
2019-05-12T08:23:37.752Z,596.25
2019-05-12T08:24:42.867Z,618.75
2019-05-12T08:25:35.997Z,736.88
2019-05-12T08:26:35.023Z,697.50
2019-05-12T08:27:39.218Z,585.00
2019-05-12T08:28:40.406Z,697.50
2019-05-12T08:29:34.953Z,725.62
2019-05-12T08:30:34.982Z,871.88
2019-05-12T08:31:40.338Z,855.00
2019-05-12T08:32:35.950Z,798.75
2019-05-12T08:33:34.925Z,714.38
2019-05-12T08:34:34.890Z,736.88
2019-05-12T08:35:38.036Z,725.62
2019-05-12T08:36:34.920Z,810.00
2019-05-12T08:37:34.871Z,900.00
2019-05-12T08:38:34.865Z,905.62
2019-05-12T08:39:34.859Z,804.38
2019-05-12T08:40:39.907Z,765.00
2019-05-12T08:41:35.859Z,748.12
2019-05-12T08:42:34.817Z,748.12
2019-05-12T08:43:34.798Z,770.62
2019-05-12T08:44:40.448Z,888.75
2019-05-12T08:45:37.481Z,900.00
2019-05-12T08:46:34.779Z,894.38
2019-05-12T08:47:38.786Z,883.12
2019-05-12T08:48:34.747Z,883.12
2019-05-12T08:49:49.855Z,860.62
2019-05-12T08:50:36.239Z,894.38
2019-05-12T08:51:34.724Z,905.62
2019-05-12T08:52:37.218Z,911.25
2019-05-12T08:53:35.743Z,888.75
2019-05-12T08:54:34.673Z,900.00
2019-05-12T08:55:35.872Z,905.62
2019-05-12T08:56:34.671Z,900.00
2019-05-12T08:57:40.914Z,900.00
2019-05-12T08:58:47.177Z,905.62
2019-05-12T08:59:35.659Z,922.50
2019-05-12T09:00:39.658Z,928.12
2019-05-12T09:01:35.612Z,950.62
2019-05-12T09:02:34.615Z,939.38
2019-05-12T09:03:34.636Z,905.62
2019-05-12T09:04:34.573Z,888.75
2019-05-12T09:05:38.283Z,888.75
2019-05-12T09:06:34.565Z,928.12
2019-05-12T09:07:35.800Z,950.62
2019-05-12T09:08:44.021Z,950.62
2019-05-12T09:09:35.563Z,1012.50
2019-05-12T09:10:34.586Z,973.12
2019-05-12T09:11:34.495Z,945.00
2019-05-12T09:12:34.486Z,911.25
2019-05-12T09:13:34.477Z,905.62
2019-05-12T09:14:41.118Z,905.62
2019-05-12T09:15:35.446Z,928.12
2019-05-12T09:16:34.447Z,967.50
2019-05-12T09:17:37.388Z,961.88
2019-05-12T09:18:39.234Z,967.50
2019-05-12T09:19:34.413Z,973.12
2019-05-12T09:20:39.424Z,984.38
2019-05-12T09:21:37.171Z,984.38
2019-05-12T09:22:34.433Z,973.12
2019-05-12T09:23:40.934Z,967.50
2019-05-12T09:24:35.352Z,978.75
2019-05-12T09:25:39.043Z,1001.25
2019-05-12T09:26:35.340Z,1006.88
2019-05-12T09:27:34.321Z,1029.38
2019-05-12T09:28:46.341Z,1035.00
2019-05-12T09:29:35.311Z,1018.12
2019-05-12T09:30:34.289Z,973.12
2019-05-12T09:31:34.381Z,928.12
2019-05-12T09:32:34.291Z,877.50
2019-05-12T09:33:34.828Z,849.38
2019-05-12T09:34:34.250Z,849.38
2019-05-12T09:35:39.067Z,900.00
2019-05-12T09:36:35.268Z,945.00
2019-05-12T09:37:39.047Z,928.12
2019-05-12T09:38:35.251Z,990.00
2019-05-12T09:39:42.595Z,1012.50
2019-05-12T09:40:35.846Z,1001.25
2019-05-12T09:41:42.745Z,1023.75
2019-05-12T09:42:35.207Z,1029.38
2019-05-12T09:43:34.449Z,1051.88
2019-05-12T09:44:34.247Z,1085.62
2019-05-12T09:45:34.127Z,1096.88
2019-05-12T09:46:37.495Z,1108.12
2019-05-12T09:47:34.399Z,1130.62
2019-05-12T09:48:34.135Z,1113.75
2019-05-12T09:49:39.216Z,1102.50
2019-05-12T09:50:35.074Z,1125.00
2019-05-12T09:51:41.498Z,1119.38
2019-05-12T09:52:35.055Z,1119.38
2019-05-12T09:53:34.258Z,1113.75
2019-05-12T09:54:40.649Z,1147.50
2019-05-12T09:55:35.033Z,1170.00
2019-05-12T09:56:34.317Z,1192.50
2019-05-12T09:57:40.846Z,1186.88
2019-05-12T09:58:34.982Z,1181.25
2019-05-12T09:59:33.982Z,1186.88
2019-05-12T10:00:35.761Z,1175.62
2019-05-12T10:01:35.352Z,1215.00
2019-05-12T10:02:33.950Z,1192.50
2019-05-12T10:03:39.052Z,1181.25
2019-05-12T10:04:34.921Z,1181.25
2019-05-12T10:05:37.556Z,1181.25
2019-05-12T10:06:34.979Z,1209.38
2019-05-12T10:07:34.036Z,1198.12
2019-05-12T10:08:35.847Z,1209.38
2019-05-12T10:09:33.885Z,1153.12
2019-05-12T10:10:40.112Z,1175.62
2019-05-12T10:11:34.839Z,1220.62
2019-05-12T10:12:36.617Z,1237.50
2019-05-12T10:13:34.842Z,1305.00
2019-05-12T10:14:33.825Z,1299.38
2019-05-12T10:15:33.867Z,1271.25
2019-05-12T10:16:33.843Z,1361.25
2019-05-12T10:17:34.107Z,1355.62
2019-05-12T10:18:33.794Z,1321.88
2019-05-12T10:19:34.086Z,1254.38
2019-05-12T10:20:39.479Z,1327.50
2019-05-12T10:21:36.059Z,1282.50
2019-05-12T10:22:37.768Z,1316.25
2019-05-12T10:23:34.731Z,1276.88
2019-05-12T10:24:41.527Z,1282.50
2019-05-12T10:25:35.508Z,1299.38
2019-05-12T10:26:34.277Z,1293.75
2019-05-12T10:27:34.546Z,1293.75
2019-05-12T10:28:33.680Z,1299.38
2019-05-12T10:29:33.652Z,1333.12
2019-05-12T10:30:34.321Z,1355.62
2019-05-12T10:31:35.793Z,1395.00
2019-05-12T10:32:34.670Z,1440.00
2019-05-12T10:33:33.874Z,1445.62
2019-05-12T10:34:35.977Z,1445.62
2019-05-12T10:35:35.254Z,1445.62
2019-05-12T10:36:33.793Z,1406.25
2019-05-12T10:37:33.569Z,1423.12
2019-05-12T10:38:34.358Z,1468.12
2019-05-12T10:39:33.629Z,1451.25
2019-05-12T10:40:33.968Z,1490.62
2019-05-12T10:41:34.247Z,1440.00
2019-05-12T10:42:33.725Z,1440.00
2019-05-12T10:43:34.221Z,1411.88
2019-05-12T10:44:39.177Z,1423.12
2019-05-12T10:45:34.479Z,1462.50
2019-05-12T10:46:33.465Z,1479.38
2019-05-12T10:47:34.340Z,1462.50
2019-05-12T10:48:33.858Z,1411.88
2019-05-12T10:49:33.795Z,1395.00
2019-05-12T10:50:34.113Z,1389.38
2019-05-12T10:51:34.341Z,1355.62
2019-05-12T10:52:35.100Z,1338.75
2019-05-12T10:53:34.450Z,1344.38
2019-05-12T10:54:34.279Z,1406.25
2019-05-12T10:55:33.772Z,1530.00
2019-05-12T10:56:34.787Z,1513.12
2019-05-12T10:57:33.471Z,1524.38
2019-05-12T10:58:33.670Z,1468.12
2019-05-12T10:59:38.550Z,1451.25
2019-05-12T11:00:34.352Z,1451.25
2019-05-12T11:01:33.310Z,1468.12
2019-05-12T11:02:33.676Z,1479.38
2019-05-12T11:03:33.733Z,1462.50
2019-05-12T11:04:38.954Z,1451.25
2019-05-12T11:05:34.417Z,1496.25
2019-05-12T11:06:34.051Z,1530.00
2019-05-12T11:07:34.067Z,1552.50
2019-05-12T11:08:33.367Z,1411.88
2019-05-12T11:09:34.575Z,1288.12
2019-05-12T11:10:33.208Z,1254.38
2019-05-12T11:11:42.337Z,1226.25
2019-05-12T11:12:34.218Z,1209.38
2019-05-12T11:13:33.819Z,1237.50
2019-05-12T11:14:34.189Z,1254.38
2019-05-12T11:15:34.339Z,1316.25
2019-05-12T11:16:35.012Z,1344.38
2019-05-12T11:17:33.554Z,1451.25
2019-05-12T11:18:34.030Z,1451.25
2019-05-12T11:19:33.744Z,1456.88
2019-05-12T11:20:34.306Z,1575.00
2019-05-12T11:21:33.648Z,1524.38
2019-05-12T11:22:33.372Z,1524.38
2019-05-12T11:23:34.490Z,1321.88
2019-05-12T11:24:33.733Z,1293.75
2019-05-12T11:25:33.951Z,1271.25
2019-05-12T11:26:33.072Z,1276.88
2019-05-12T11:27:34.533Z,1293.75
2019-05-12T11:28:33.705Z,1237.50
2019-05-12T11:29:45.550Z,1181.25
2019-05-12T11:30:34.693Z,1153.12
2019-05-12T11:31:33.481Z,1085.62
2019-05-12T11:32:36.395Z,1096.88
2019-05-12T11:33:34.115Z,1102.50
2019-05-12T11:34:33.555Z,1108.12
2019-05-12T11:35:32.927Z,1147.50
2019-05-12T11:36:34.460Z,1046.25
2019-05-12T11:37:33.799Z,1029.38
2019-05-12T11:38:33.636Z,1091.25
2019-05-12T11:39:36.673Z,1113.75
2019-05-12T11:40:34.659Z,1080.00
2019-05-12T11:41:33.331Z,1035.00
2019-05-12T11:42:33.635Z,1057.50
2019-05-12T11:43:33.724Z,1096.88
2019-05-12T11:44:33.704Z,1158.75
2019-05-12T11:45:33.557Z,1136.25
2019-05-12T11:46:36.186Z,1147.50
2019-05-12T11:47:34.650Z,1170.00
2019-05-12T11:48:33.842Z,1170.00
2019-05-12T11:49:33.358Z,1125.00
2019-05-12T11:50:32.762Z,1147.50
2019-05-12T11:51:34.083Z,1181.25
2019-05-12T11:52:33.397Z,1198.12
2019-05-12T11:53:34.875Z,1198.12
2019-05-12T11:54:33.522Z,1254.38
2019-05-12T11:55:34.818Z,1288.12
2019-05-12T11:56:33.654Z,1327.50
2019-05-12T11:57:34.093Z,1333.12
2019-05-12T11:58:33.490Z,1378.12
2019-05-12T11:59:34.141Z,1400.62
2019-05-12T12:00:33.618Z,1338.75
2019-05-12T12:01:34.549Z,1333.12
2019-05-12T12:02:34.259Z,1310.62
2019-05-12T12:03:33.657Z,1271.25
2019-05-12T12:04:34.049Z,1198.12
2019-05-12T12:05:33.824Z,1181.25
2019-05-12T12:06:33.155Z,1175.62
2019-05-12T12:07:33.262Z,1125.00
2019-05-12T12:08:36.986Z,1181.25
2019-05-12T12:09:32.565Z,1260.00
2019-05-12T12:10:35.406Z,1254.38
2019-05-12T12:11:34.241Z,1243.12
2019-05-12T12:12:34.488Z,1209.38
2019-05-12T12:13:33.643Z,1215.00
2019-05-12T12:14:34.493Z,1203.75
2019-05-12T12:15:34.472Z,1231.88
2019-05-12T12:16:34.093Z,1248.75
2019-05-12T12:17:35.508Z,1321.88
2019-05-12T12:18:33.805Z,1355.62
2019-05-12T12:19:37.809Z,1344.38
2019-05-12T12:20:33.892Z,1310.62
2019-05-12T12:21:34.948Z,1254.38
2019-05-12T12:22:33.957Z,1186.88
2019-05-12T12:23:33.468Z,1215.00
2019-05-12T12:24:32.416Z,1158.75
2019-05-12T12:25:34.232Z,1147.50
2019-05-12T12:26:34.903Z,1125.00
2019-05-12T12:27:32.364Z,1085.62
2019-05-12T12:28:34.311Z,1063.12
2019-05-12T12:29:34.427Z,1029.38
2019-05-12T12:30:33.888Z,984.38
2019-05-12T12:31:35.536Z,956.25
2019-05-12T12:32:33.901Z,950.62
2019-05-12T12:33:38.681Z,978.75
2019-05-12T12:34:33.284Z,1006.88
2019-05-12T12:35:34.484Z,1023.75
2019-05-12T12:36:34.174Z,984.38
2019-05-12T12:37:33.150Z,939.38
2019-05-12T12:38:33.459Z,922.50
2019-05-12T12:39:32.230Z,967.50
2019-05-12T12:40:32.231Z,1023.75